createdAt,value
2022-08-20T00:01:17.218Z,2.60
2022-08-20T00:04:05.013Z,2.30
2022-08-20T00:06:53.787Z,2.40
2022-08-20T00:09:41.746Z,2.55
2022-08-20T00:12:29.506Z,2.47
2022-08-20T00:15:21.724Z,2.38
2022-08-20T00:18:09.591Z,2.80
2022-08-20T00:21:01.320Z,2.47
2022-08-20T00:23:50.553Z,2.28
2022-08-20T00:26:38.028Z,2.70
2022-08-20T00:29:39.107Z,2.60
2022-08-20T00:32:26.391Z,2.58
2022-08-20T00:35:15.433Z,2.30
2022-08-20T00:38:03.016Z,2.80
2022-08-20T00:40:56.470Z,2.35
2022-08-20T00:43:47.618Z,2.50
2022-08-20T00:46:35.381Z,2.53
2022-08-20T00:49:27.898Z,2.73
2022-08-20T00:52:19.465Z,2.30
2022-08-20T00:55:07.113Z,2.75
2022-08-20T00:58:01.102Z,2.80
2022-08-20T01:00:49.857Z,2.55
2022-08-20T01:03:36.933Z,2.83
2022-08-20T01:06:25.258Z,2.50
2022-08-20T01:09:13.961Z,2.47
2022-08-20T01:12:03.624Z,2.58
2022-08-20T01:14:51.017Z,2.58
2022-08-20T01:17:41.899Z,2.10
2022-08-20T01:20:36.359Z,2.30
2022-08-20T01:23:36.151Z,2.20
2022-08-20T01:26:34.287Z,2.17
2022-08-20T01:29:32.079Z,2.08
2022-08-20T01:32:18.984Z,1.93
2022-08-20T01:35:06.296Z,2.00
2022-08-20T01:37:53.196Z,2.28
2022-08-20T01:41:15.080Z,2.13
2022-08-20T01:44:02.539Z,2.20
2022-08-20T01:46:54.177Z,2.03
2022-08-20T01:49:53.623Z,2.25
2022-08-20T01:52:52.344Z,1.85
2022-08-20T01:55:39.523Z,2.00
2022-08-20T01:58:29.760Z,2.50
2022-08-20T02:01:46.280Z,2.10
2022-08-20T02:04:34.709Z,2.00
2022-08-20T02:07:23.570Z,1.98
2022-08-20T02:10:13.046Z,2.28
2022-08-20T02:13:01.032Z,2.13
2022-08-20T02:15:48.379Z,2.10
2022-08-20T02:18:35.436Z,1.98
2022-08-20T02:21:24.022Z,2.10
2022-08-20T02:24:11.301Z,2.00
2022-08-20T02:26:58.780Z,1.90
2022-08-20T02:29:46.588Z,2.33
2022-08-20T02:32:34.460Z,1.85
2022-08-20T02:35:21.417Z,2.45
2022-08-20T02:38:10.150Z,1.55
2022-08-20T02:40:57.097Z,2.30
2022-08-20T02:43:44.366Z,2.07
2022-08-20T02:46:34.399Z,1.90
2022-08-20T02:49:21.802Z,2.05
2022-08-20T02:52:09.636Z,2.30
2022-08-20T02:54:56.754Z,1.90
2022-08-20T02:57:44.263Z,1.77
2022-08-20T03:00:38.364Z,2.00
2022-08-20T03:03:25.680Z,1.77
2022-08-20T03:06:15.173Z,2.13
2022-08-20T03:09:04.597Z,2.00
2022-08-20T03:11:52.300Z,1.73
2022-08-20T03:14:39.161Z,2.13
2022-08-20T03:17:26.358Z,1.98
2022-08-20T03:20:14.298Z,1.95
2022-08-20T03:23:01.980Z,2.38
2022-08-20T03:25:49.655Z,2.00
2022-08-20T03:28:37.188Z,2.20
2022-08-20T03:31:24.430Z,2.03
2022-08-20T03:34:11.897Z,1.80
2022-08-20T03:36:58.700Z,2.10
2022-08-20T03:39:46.231Z,2.60
2022-08-20T03:42:33.190Z,2.03
2022-08-20T03:45:22.351Z,1.85
2022-08-20T03:48:11.490Z,1.95
2022-08-20T03:51:01.277Z,1.92
2022-08-20T03:53:48.088Z,2.13
2022-08-20T03:56:35.381Z,1.88
2022-08-20T03:59:22.342Z,1.73
2022-08-20T04:02:09.564Z,2.05
2022-08-20T04:04:56.422Z,2.42
2022-08-20T04:07:44.827Z,2.53
2022-08-20T04:10:32.109Z,2.40
2022-08-20T04:13:23.764Z,2.40
2022-08-20T04:16:13.460Z,2.28
2022-08-20T04:19:03.641Z,2.30
2022-08-20T04:21:50.498Z,2.37
2022-08-20T04:24:37.984Z,2.30
2022-08-20T04:27:24.840Z,2.67
2022-08-20T04:30:14.367Z,2.45
2022-08-20T04:33:01.836Z,2.20
2022-08-20T04:35:48.929Z,2.30
2022-08-20T04:38:50.169Z,2.13
2022-08-20T04:41:38.468Z,2.17
2022-08-20T04:44:25.362Z,2.28
2022-08-20T04:47:12.556Z,2.08
2022-08-20T04:50:02.531Z,2.47
2022-08-20T04:52:50.402Z,2.72
2022-08-20T04:55:40.728Z,2.42
2022-08-20T04:58:31.024Z,2.35
2022-08-20T05:01:18.131Z,2.35
2022-08-20T05:04:05.230Z,2.10
2022-08-20T05:06:52.063Z,2.30
2022-08-20T05:09:43.890Z,2.30
2022-08-20T05:12:31.098Z,2.42
2022-08-20T05:15:18.567Z,2.10
2022-08-20T05:18:07.977Z,2.67
2022-08-20T05:21:06.143Z,2.20
2022-08-20T05:23:53.005Z,2.58
2022-08-20T05:26:40.410Z,2.20
2022-08-20T05:29:28.096Z,2.15
2022-08-20T05:32:15.676Z,2.03
2022-08-20T05:35:05.017Z,2.30
2022-08-20T05:37:52.185Z,2.10
2022-08-20T05:40:40.747Z,2.08
2022-08-20T05:43:28.097Z,2.25
2022-08-20T05:46:16.821Z,2.10
2022-08-20T05:49:04.060Z,2.40
2022-08-20T05:51:51.351Z,1.90
2022-08-20T05:54:38.455Z,1.80
2022-08-20T05:57:25.339Z,1.67
2022-08-20T06:00:14.707Z,2.03
2022-08-20T06:03:20.472Z,1.75
2022-08-20T06:06:18.294Z,2.88
2022-08-20T06:09:28.085Z,1.73
2022-08-20T06:12:19.265Z,2.13
2022-08-20T06:15:07.411Z,2.60
2022-08-20T06:17:58.126Z,1.95
2022-08-20T06:20:45.970Z,2.00
2022-08-20T06:23:45.515Z,2.22
2022-08-20T06:26:40.081Z,2.30
2022-08-20T06:29:28.485Z,3.10
2022-08-20T06:32:15.561Z,2.22
2022-08-20T06:35:06.855Z,2.40
2022-08-20T06:37:54.156Z,2.53
2022-08-20T06:40:41.455Z,2.00
2022-08-20T06:43:28.419Z,2.03
2022-08-20T06:46:16.029Z,2.00
2022-08-20T06:49:04.962Z,1.63
2022-08-20T06:51:52.261Z,1.92
2022-08-20T06:54:39.122Z,1.60
2022-08-20T06:57:26.385Z,1.70
2022-08-20T07:00:18.853Z,1.65
2022-08-20T07:03:06.357Z,1.67
2022-08-20T07:05:53.340Z,1.80
2022-08-20T07:08:40.900Z,1.60
2022-08-20T07:11:29.026Z,1.90
2022-08-20T07:14:17.178Z,1.70
2022-08-20T07:17:04.080Z,1.52
2022-08-20T07:19:57.049Z,2.08
2022-08-20T07:22:44.187Z,2.08
2022-08-20T07:25:33.626Z,1.30
2022-08-20T07:28:23.120Z,1.60
2022-08-20T07:31:28.822Z,1.58
2022-08-20T07:34:18.244Z,1.40
2022-08-20T07:37:07.015Z,1.50
2022-08-20T07:39:53.996Z,1.40
2022-08-20T07:42:41.321Z,1.55
2022-08-20T07:45:29.496Z,1.90
2022-08-20T07:48:27.958Z,1.10
2022-08-20T07:51:22.182Z,1.38
2022-08-20T07:54:09.457Z,1.40
2022-08-20T07:56:56.269Z,1.50
2022-08-20T07:59:45.400Z,1.67
2022-08-20T08:02:34.052Z,1.50
2022-08-20T08:05:21.283Z,1.70
2022-08-20T08:08:11.135Z,1.40
2022-08-20T08:11:00.936Z,1.55
2022-08-20T08:13:48.233Z,1.33
2022-08-20T08:16:37.302Z,1.40
2022-08-20T08:19:25.772Z,1.40
2022-08-20T08:22:16.560Z,1.60
2022-08-20T08:25:04.155Z,1.58
2022-08-20T08:27:51.466Z,1.55
2022-08-20T08:30:40.295Z,1.58
2022-08-20T08:33:32.315Z,1.63
2022-08-20T08:36:19.185Z,1.60
2022-08-20T08:39:06.772Z,1.50
2022-08-20T08:41:57.174Z,1.80
2022-08-20T08:44:44.396Z,1.60
2022-08-20T08:47:35.909Z,1.60
2022-08-20T08:50:52.980Z,1.60
2022-08-20T08:53:42.218Z,2.55
2022-08-20T08:56:30.588Z,1.88
2022-08-20T08:59:18.840Z,1.45
2022-08-20T09:02:07.159Z,1.75
2022-08-20T09:04:59.639Z,1.53
2022-08-20T09:07:51.312Z,1.50
2022-08-20T09:10:40.016Z,1.70
2022-08-20T09:13:27.268Z,2.00
2022-08-20T09:16:14.838Z,1.88
2022-08-20T09:19:01.885Z,1.63
2022-08-20T09:21:49.210Z,1.83
2022-08-20T09:24:37.192Z,1.60
2022-08-20T09:27:24.237Z,1.60
2022-08-20T09:30:12.691Z,1.95
2022-08-20T09:33:00.880Z,1.87
2022-08-20T09:35:47.969Z,1.80
2022-08-20T09:38:35.084Z,1.90
2022-08-20T09:41:22.201Z,1.60
2022-08-20T09:44:09.011Z,1.60
2022-08-20T09:46:56.520Z,1.97
2022-08-20T09:49:44.553Z,1.60
2022-08-20T09:52:38.872Z,1.65
2022-08-20T09:55:35.750Z,1.77
2022-08-20T09:58:38.036Z,1.90
2022-08-20T10:01:25.590Z,2.07
2022-08-20T10:04:13.073Z,2.10
2022-08-20T10:06:59.957Z,1.70
2022-08-20T10:09:47.094Z,1.70
2022-08-20T10:12:34.029Z,1.45
2022-08-20T10:15:21.152Z,1.60
2022-08-20T10:18:08.103Z,1.88
2022-08-20T10:20:55.449Z,1.38
2022-08-20T10:23:42.403Z,1.60
2022-08-20T10:26:29.564Z,1.80
2022-08-20T10:29:17.195Z,1.60
2022-08-20T10:32:13.451Z,1.60
2022-08-20T10:35:00.471Z,1.85
2022-08-20T10:37:47.748Z,1.60
2022-08-20T10:40:34.593Z,1.60
2022-08-20T10:43:21.875Z,1.90
2022-08-20T10:46:09.250Z,1.70
2022-08-20T10:48:56.383Z,1.48
2022-08-20T10:51:43.394Z,1.80
2022-08-20T10:54:30.597Z,1.67
2022-08-20T10:57:21.005Z,1.40
2022-08-20T11:00:10.359Z,1.73
2022-08-20T11:02:57.263Z,1.85
2022-08-20T11:05:44.803Z,1.52
2022-08-20T11:08:34.480Z,1.85
2022-08-20T11:11:23.437Z,1.90
2022-08-20T11:14:10.305Z,1.77
2022-08-20T11:16:57.604Z,1.58
2022-08-20T11:19:44.963Z,1.63
2022-08-20T11:22:32.094Z,1.60
2022-08-20T11:25:19.317Z,1.40
2022-08-20T11:28:07.055Z,1.45
2022-08-20T11:30:54.004Z,1.60
2022-08-20T11:33:41.263Z,1.48
2022-08-20T11:36:28.180Z,1.65
2022-08-20T11:39:15.548Z,1.40
2022-08-20T11:42:02.814Z,1.38
2022-08-20T11:44:51.460Z,1.30
2022-08-20T11:47:39.001Z,1.40
2022-08-20T11:50:26.265Z,1.35
2022-08-20T11:53:13.114Z,1.40
2022-08-20T11:56:02.146Z,1.45
2022-08-20T11:58:50.702Z,1.75
2022-08-20T12:01:37.908Z,1.30
2022-08-20T12:04:26.428Z,1.30
2022-08-20T12:07:19.164Z,1.50
2022-08-20T12:10:09.834Z,1.63
2022-08-20T12:12:57.657Z,1.50
2022-08-20T12:15:44.812Z,1.73
2022-08-20T12:18:32.256Z,1.55
2022-08-20T12:21:19.491Z,1.70
2022-08-20T12:24:06.681Z,1.30
2022-08-20T12:26:53.667Z,2.10
2022-08-20T12:29:42.257Z,1.50
2022-08-20T12:32:30.837Z,1.52
2022-08-20T12:35:20.007Z,1.80
2022-08-20T12:38:06.960Z,1.90
2022-08-20T12:40:54.172Z,1.70
2022-08-20T12:43:41.013Z,1.50
2022-08-20T12:46:28.247Z,1.73
2022-08-20T12:49:15.143Z,1.47
2022-08-20T12:52:04.007Z,1.77
2022-08-20T12:54:51.168Z,1.92
2022-08-20T12:57:46.525Z,1.63
2022-08-20T13:00:37.382Z,1.83
2022-08-20T13:03:24.494Z,2.13
2022-08-20T13:06:11.312Z,1.63
2022-08-20T13:08:58.646Z,1.85
2022-08-20T13:11:45.487Z,2.17
2022-08-20T13:14:32.611Z,1.95
2022-08-20T13:17:20.396Z,1.80
2022-08-20T13:20:21.111Z,2.00
2022-08-20T13:23:07.988Z,2.30
2022-08-20T13:25:55.476Z,1.80
2022-08-20T13:28:42.289Z,1.90
2022-08-20T13:31:29.596Z,1.70
2022-08-20T13:34:16.436Z,1.95
2022-08-20T13:37:12.863Z,1.70
2022-08-20T13:40:00.397Z,1.83
2022-08-20T13:42:47.844Z,2.08
2022-08-20T13:45:38.774Z,1.77
2022-08-20T13:48:25.849Z,2.15
2022-08-20T13:51:12.848Z,2.22
2022-08-20T13:54:00.009Z,1.80
2022-08-20T13:56:47.024Z,2.00
2022-08-20T13:59:42.887Z,2.00
2022-08-20T14:02:29.708Z,1.70
2022-08-20T14:05:19.096Z,1.70
2022-08-20T14:08:18.152Z,1.63
2022-08-20T14:11:05.474Z,2.50
2022-08-20T14:13:52.356Z,1.70
2022-08-20T14:16:39.996Z,2.25
2022-08-20T14:19:27.332Z,1.73
2022-08-20T14:22:17.543Z,1.70
2022-08-20T14:25:09.300Z,1.52
2022-08-20T14:27:57.082Z,1.70
2022-08-20T14:30:44.652Z,1.70
2022-08-20T14:33:32.175Z,1.70
2022-08-20T14:36:19.003Z,1.80
2022-08-20T14:39:06.380Z,1.63
2022-08-20T14:41:53.303Z,1.30
2022-08-20T14:44:41.020Z,1.33
2022-08-20T14:47:30.837Z,1.90
2022-08-20T14:50:26.408Z,2.50
2022-08-20T14:53:13.482Z,1.80
2022-08-20T14:56:01.031Z,1.53
2022-08-20T14:59:13.033Z,1.40
2022-08-20T15:02:25.816Z,1.40
2022-08-20T15:05:14.813Z,1.33
2022-08-20T15:08:03.002Z,1.30
2022-08-20T15:10:53.174Z,1.70
2022-08-20T15:13:40.863Z,1.52
2022-08-20T15:16:28.332Z,1.45
2022-08-20T15:19:16.165Z,1.38
2022-08-20T15:22:03.450Z,1.23
2022-08-20T15:24:55.603Z,1.30
2022-08-20T15:27:51.806Z,1.30
2022-08-20T15:30:49.735Z,1.38
2022-08-20T15:33:38.090Z,2.00
2022-08-20T15:36:25.310Z,1.42
2022-08-20T15:39:12.492Z,2.10
2022-08-20T15:41:59.539Z,2.58
2022-08-20T15:44:47.461Z,2.22
2022-08-20T15:47:38.448Z,1.73
2022-08-20T15:50:39.554Z,1.75
2022-08-20T15:53:58.378Z,1.90
2022-08-20T15:57:07.538Z,2.55
2022-08-20T16:00:13.666Z,2.50
2022-08-20T16:03:31.644Z,1.92
2022-08-20T16:06:27.463Z,1.50
2022-08-20T16:09:31.074Z,1.37
2022-08-20T16:12:42.652Z,1.30
2022-08-20T16:15:33.333Z,1.48
2022-08-20T16:18:24.408Z,2.08
2022-08-20T16:21:17.185Z,1.65
2022-08-20T16:24:07.044Z,2.10
2022-08-20T16:27:07.269Z,2.10
2022-08-20T16:30:04.089Z,2.65
2022-08-20T16:33:03.246Z,3.13
2022-08-20T16:35:56.632Z,1.40
2022-08-20T16:38:51.439Z,1.30
2022-08-20T16:41:43.423Z,1.20
2022-08-20T16:44:33.119Z,1.45
2022-08-20T16:47:26.926Z,1.55
2022-08-20T16:50:29.094Z,1.20
2022-08-20T16:53:20.311Z,1.80
2022-08-20T16:56:07.603Z,1.30
2022-08-20T16:58:54.552Z,1.20
2022-08-20T17:01:42.983Z,1.33
2022-08-20T17:04:29.987Z,1.25
2022-08-20T17:07:29.715Z,1.40
2022-08-20T17:10:23.868Z,1.65
2022-08-20T17:13:13.630Z,1.67
2022-08-20T17:16:03.868Z,1.40
2022-08-20T17:18:53.629Z,1.35
2022-08-20T17:21:41.622Z,1.70
2022-08-20T17:24:31.932Z,2.08
2022-08-20T17:27:31.166Z,1.40
2022-08-20T17:30:25.205Z,1.30
2022-08-20T17:33:21.036Z,1.40
2022-08-20T17:36:22.314Z,1.47
2022-08-20T17:39:18.564Z,1.40
2022-08-20T17:42:09.484Z,1.60
2022-08-20T17:45:12.642Z,1.40
2022-08-20T17:48:03.655Z,1.75
2022-08-20T17:50:55.172Z,1.80
2022-08-20T17:53:45.699Z,1.70
2022-08-20T17:56:37.623Z,1.70
2022-08-20T18:00:00.184Z,1.88
2022-08-20T18:02:40.332Z,1.65
2022-08-20T18:05:31.621Z,1.80
2022-08-20T18:12:54.355Z,1.60
2022-08-20T18:15:56.254Z,1.50
2022-08-20T18:18:57.496Z,1.42
2022-08-20T18:22:12.306Z,1.80
2022-08-20T18:25:45.771Z,1.60
2022-08-20T18:28:40.566Z,2.10
2022-08-20T18:32:02.668Z,1.30
2022-08-20T18:34:51.293Z,1.40
2022-08-20T18:37:38.823Z,1.53
2022-08-20T18:40:33.128Z,1.50
2022-08-20T18:43:30.272Z,1.30
2022-08-20T18:46:22.652Z,1.48
2022-08-20T18:49:12.555Z,1.48
2022-08-20T18:52:12.453Z,1.67
2022-08-20T18:55:02.499Z,1.60
2022-08-20T18:58:10.383Z,1.52
2022-08-20T19:00:58.080Z,1.80
2022-08-20T19:03:49.048Z,1.70
2022-08-20T19:06:57.595Z,1.83
2022-08-20T19:10:27.718Z,1.85
2022-08-20T19:14:02.885Z,1.50
2022-08-20T19:16:57.818Z,1.70
2022-08-20T19:19:44.837Z,1.80
2022-08-20T19:22:33.883Z,1.70
2022-08-20T19:25:24.542Z,1.48
2022-08-20T19:28:21.220Z,1.50
2022-08-20T19:31:21.892Z,1.52
2022-08-20T19:34:19.763Z,1.63
2022-08-20T19:37:32.258Z,1.80
2022-08-20T19:40:28.438Z,1.85
2022-08-20T19:43:18.573Z,1.90
2022-08-20T19:46:06.324Z,1.75
2022-08-20T19:49:19.116Z,2.00
2022-08-20T19:52:21.763Z,1.97
2022-08-20T19:55:38.856Z,2.30
2022-08-20T19:58:27.772Z,1.92
2022-08-20T20:01:21.454Z,2.05
2022-08-20T20:04:17.043Z,1.90
2022-08-20T20:07:08.587Z,1.70
2022-08-20T20:09:57.871Z,1.80
2022-08-20T20:12:47.053Z,1.85
2022-08-20T20:15:34.291Z,1.90
2022-08-20T20:18:24.771Z,2.35
2022-08-20T20:21:21.832Z,1.77
2022-08-20T20:24:09.793Z,1.92
2022-08-20T20:26:59.261Z,2.10
2022-08-20T20:29:46.281Z,1.80
2022-08-20T20:32:34.132Z,2.47
2022-08-20T20:35:34.668Z,1.87
2022-08-20T20:38:27.709Z,2.03
2022-08-20T20:41:22.167Z,2.00
2022-08-20T20:44:26.679Z,1.85
2022-08-20T20:47:23.146Z,2.42
2022-08-20T20:50:12.121Z,1.80
2022-08-20T20:52:59.805Z,2.15
2022-08-20T20:55:55.806Z,1.90
2022-08-20T20:58:47.153Z,2.33
2022-08-20T21:01:50.188Z,3.13
2022-08-20T21:04:42.378Z,3.33
2022-08-20T21:07:29.801Z,3.15
2022-08-20T21:10:19.500Z,2.50
2022-08-20T21:13:08.203Z,2.90
2022-08-20T21:15:55.346Z,2.33
2022-08-20T21:18:42.426Z,2.30
2022-08-20T21:21:29.352Z,2.50
2022-08-20T21:24:16.418Z,2.67
2022-08-20T21:27:03.926Z,3.00
2022-08-20T21:29:52.781Z,2.75
2022-08-20T21:32:39.867Z,3.00
2022-08-20T21:35:27.784Z,2.78
2022-08-20T21:38:15.060Z,3.20
2022-08-20T21:41:07.341Z,3.03
2022-08-20T21:43:54.860Z,3.35
2022-08-20T21:46:42.129Z,2.70
2022-08-20T21:49:31.425Z,3.38
2022-08-20T21:52:19.051Z,2.80
2022-08-20T21:55:07.027Z,2.78
2022-08-20T21:57:54.556Z,2.72
2022-08-20T22:00:44.311Z,3.07
2022-08-20T22:03:38.794Z,3.05
2022-08-20T22:06:28.613Z,3.33
2022-08-20T22:09:16.140Z,2.92
2022-08-20T22:12:03.831Z,2.60
2022-08-20T22:14:51.496Z,3.20
2022-08-20T22:17:38.616Z,3.05
2022-08-20T22:20:25.739Z,2.92
2022-08-20T22:23:12.791Z,3.08
2022-08-20T22:25:59.823Z,3.00
2022-08-20T22:28:51.250Z,2.87
2022-08-20T22:31:41.652Z,2.70
2022-08-20T22:34:32.066Z,2.95
2022-08-20T22:37:19.322Z,2.50
2022-08-20T22:40:07.313Z,2.90
2022-08-20T22:42:54.428Z,2.93
2022-08-20T22:45:45.012Z,2.70
2022-08-20T22:48:32.216Z,2.70
2022-08-20T22:51:28.960Z,2.65
2022-08-20T22:54:20.537Z,2.50
2022-08-20T22:57:07.526Z,2.93
2022-08-20T22:59:56.145Z,3.08
2022-08-20T23:02:45.925Z,2.70
2022-08-20T23:05:36.184Z,2.75
2022-08-20T23:08:23.309Z,2.88
2022-08-20T23:11:14.307Z,2.50
2022-08-20T23:14:01.371Z,2.95
2022-08-20T23:16:58.593Z,2.53
2022-08-20T23:19:47.845Z,2.35
2022-08-20T23:22:35.090Z,2.80
2022-08-20T23:25:22.339Z,1.80
2022-08-20T23:28:10.076Z,2.63
2022-08-20T23:30:57.071Z,2.10
2022-08-20T23:33:44.915Z,2.00
2022-08-20T23:36:32.446Z,2.22
2022-08-20T23:39:19.819Z,2.00
2022-08-20T23:42:06.900Z,2.65
2022-08-20T23:44:53.845Z,2.10
2022-08-20T23:47:40.835Z,2.35
2022-08-20T23:50:30.518Z,2.50
2022-08-20T23:53:17.585Z,2.63
2022-08-20T23:56:05.385Z,2.42
2022-08-20T23:58:53.155Z,2.20
